createdAt,value
2018-04-18T00:00:22.209Z,85.27
2018-04-18T00:01:22.446Z,84.94
2018-04-18T00:02:22.601Z,85.22
2018-04-18T00:03:22.807Z,85.51
2018-04-18T00:04:23.014Z,85.32
2018-04-18T00:05:23.215Z,85.22
2018-04-18T00:06:23.391Z,85.89
2018-04-18T00:07:23.572Z,85.99
2018-04-18T00:08:23.755Z,85.99
2018-04-18T00:09:23.963Z,85.80
2018-04-18T00:10:24.157Z,85.51
2018-04-18T00:11:24.356Z,85.80
2018-04-18T00:12:24.554Z,85.89
2018-04-18T00:13:24.758Z,85.89
2018-04-18T00:14:24.973Z,85.32
2018-04-18T00:15:25.167Z,85.51
2018-04-18T00:16:25.355Z,85.51
2018-04-18T00:17:25.542Z,85.51
2018-04-18T00:18:25.745Z,85.80
2018-04-18T00:19:25.928Z,85.60
2018-04-18T00:20:26.110Z,86.36
2018-04-18T00:21:26.307Z,85.99
2018-04-18T00:22:26.510Z,86.18
2018-04-18T00:23:26.720Z,86.18
2018-04-18T00:24:26.928Z,85.70
2018-04-18T00:25:27.148Z,86.08
2018-04-18T00:26:27.338Z,85.89
2018-04-18T00:27:27.522Z,86.65
2018-04-18T00:28:27.721Z,86.65
2018-04-18T00:29:27.914Z,86.65
2018-04-18T00:30:28.097Z,86.65
2018-04-18T00:31:28.295Z,87.23
2018-04-18T00:34:00.448Z,86.94
2018-04-18T00:35:00.663Z,86.84
2018-04-18T00:36:00.852Z,87.03
2018-04-18T00:37:01.059Z,86.70
2018-04-18T00:38:01.266Z,86.84
2018-04-18T00:39:01.473Z,87.37
2018-04-18T00:40:01.672Z,87.03
2018-04-18T00:41:01.872Z,87.37
2018-04-18T00:42:02.074Z,86.80
2018-04-18T00:43:02.251Z,87.41
2018-04-18T00:44:02.464Z,86.75
2018-04-18T00:45:02.675Z,87.37
2018-04-18T00:46:02.873Z,86.99
2018-04-18T00:47:03.075Z,87.18
2018-04-18T00:48:03.273Z,87.56
2018-04-18T00:49:03.463Z,87.27
2018-04-18T00:51:37.304Z,87.18
2018-04-18T00:52:35.482Z,86.61
2018-04-18T00:53:35.692Z,86.90
2018-04-18T00:54:35.899Z,86.80
2018-04-18T00:55:36.083Z,86.51
2018-04-18T00:56:36.264Z,86.51
2018-04-18T00:57:36.475Z,86.90
2018-04-18T00:58:36.658Z,87.08
2018-04-18T00:59:36.854Z,86.61
2018-04-18T01:00:37.037Z,87.37
2018-04-18T01:01:37.237Z,87.08
2018-04-18T01:02:37.454Z,87.46
2018-04-18T01:03:37.618Z,86.90
2018-04-18T01:04:37.848Z,87.08
2018-04-18T01:05:38.003Z,87.18
2018-04-18T01:06:38.187Z,87.18
2018-04-18T01:09:12.024Z,87.18
2018-04-18T01:10:10.694Z,87.37
2018-04-18T01:11:10.884Z,87.46
2018-04-18T01:12:11.151Z,87.85
2018-04-18T01:13:11.233Z,87.94
2018-04-18T01:14:11.417Z,87.94
2018-04-18T01:15:11.626Z,87.94
2018-04-18T01:16:11.825Z,87.85
2018-04-18T01:17:12.011Z,87.94
2018-04-18T01:18:12.218Z,87.65
2018-04-18T01:19:12.520Z,87.94
2018-04-18T01:20:12.579Z,87.94
2018-04-18T01:21:12.772Z,87.85
2018-04-18T01:22:12.950Z,87.94
2018-04-18T01:23:13.154Z,87.94
2018-04-18T01:24:13.356Z,87.94
2018-04-18T01:25:13.557Z,87.94
2018-04-18T01:26:13.749Z,88.13
2018-04-18T01:27:13.939Z,88.13
2018-04-18T01:28:14.134Z,87.65
2018-04-18T01:29:14.342Z,87.65
2018-04-18T01:30:14.535Z,87.85
2018-04-18T01:31:14.738Z,88.42
2018-04-18T01:32:14.944Z,87.65
2018-04-18T01:33:15.125Z,88.51
2018-04-18T01:34:15.339Z,88.56
2018-04-18T01:35:15.539Z,88.51
2018-04-18T01:36:15.721Z,88.42
2018-04-18T01:37:15.906Z,87.94
2018-04-18T01:38:16.094Z,88.23
2018-04-18T01:39:16.278Z,88.60
2018-04-18T01:40:16.465Z,88.32
2018-04-18T01:41:16.664Z,88.37
2018-04-18T01:42:16.864Z,88.42
2018-04-18T01:43:17.054Z,87.94
2018-04-18T01:44:17.254Z,87.90
2018-04-18T01:45:17.447Z,88.18
2018-04-18T01:46:17.631Z,88.37
2018-04-18T01:47:17.803Z,88.32
2018-04-18T01:48:17.991Z,88.42
2018-04-18T01:50:50.183Z,88.28
2018-04-18T01:51:50.341Z,88.37
2018-04-18T01:52:50.536Z,88.94
2018-04-18T01:53:50.898Z,88.85
2018-04-18T01:54:50.906Z,88.85
2018-04-18T01:55:51.115Z,88.94
2018-04-18T01:56:51.301Z,88.46
2018-04-18T01:57:51.505Z,88.85
2018-04-18T01:58:51.685Z,88.85
2018-04-18T01:59:51.888Z,88.75
2018-04-18T02:00:52.084Z,88.85
2018-04-18T02:01:52.269Z,88.75
2018-04-18T02:02:52.477Z,88.85
2018-04-18T02:03:52.735Z,88.75
2018-04-18T02:04:52.789Z,89.04
2018-04-18T02:05:52.993Z,88.94
2018-04-18T02:06:53.186Z,89.04
2018-04-18T02:07:53.370Z,88.94
2018-04-18T02:08:53.578Z,88.85
2018-04-18T02:09:53.783Z,88.75
2018-04-18T02:10:53.957Z,88.66
2018-04-18T02:11:54.148Z,88.75
2018-04-18T02:12:54.335Z,89.14
2018-04-18T02:13:54.557Z,89.04
2018-04-18T02:14:54.741Z,89.51
2018-04-18T02:15:54.963Z,89.51
2018-04-18T02:16:55.146Z,89.42
2018-04-18T02:17:55.340Z,88.94
2018-04-18T02:18:55.521Z,89.42
2018-04-18T02:19:55.730Z,88.85
2018-04-18T02:20:55.913Z,88.75
2018-04-18T02:23:28.142Z,89.23
2018-04-18T02:24:28.307Z,89.04
2018-04-18T02:25:28.510Z,89.04
2018-04-18T02:26:28.708Z,89.14
2018-04-18T02:27:28.904Z,88.85
2018-04-18T02:28:29.118Z,89.04
2018-04-18T02:29:29.304Z,89.04
2018-04-18T02:30:29.493Z,89.23
2018-04-18T02:31:29.692Z,89.61
2018-04-18T02:32:29.864Z,89.32
2018-04-18T02:33:30.077Z,89.51
2018-04-18T02:34:30.276Z,89.61
2018-04-18T02:37:04.117Z,89.89
2018-04-18T02:38:02.539Z,89.32
2018-04-18T02:39:02.756Z,89.51
2018-04-18T02:40:02.950Z,89.80
2018-04-18T02:41:03.144Z,90.08
2018-04-18T02:42:03.351Z,89.61
2018-04-18T02:43:03.538Z,90.18
2018-04-18T02:44:03.742Z,90.23
2018-04-18T02:45:03.932Z,90.37
2018-04-18T02:46:04.142Z,90.28
2018-04-18T02:47:04.319Z,90.56
2018-04-18T02:48:04.647Z,90.33
2018-04-18T02:49:04.729Z,90.23
2018-04-18T02:50:04.920Z,90.99
2018-04-18T02:51:05.113Z,90.23
2018-04-18T02:52:05.321Z,90.80
2018-04-18T02:53:05.525Z,90.80
2018-04-18T02:54:05.719Z,90.99
2018-04-18T02:55:05.903Z,90.80
2018-04-18T02:56:06.083Z,90.33
2018-04-18T02:57:06.277Z,90.23
2018-04-18T02:58:06.462Z,90.14
2018-04-18T02:59:06.669Z,89.66
2018-04-18T03:00:06.867Z,89.85
2018-04-18T03:01:07.059Z,89.94
2018-04-18T03:02:07.264Z,89.85
2018-04-18T03:03:07.450Z,90.04
2018-04-18T03:04:07.641Z,89.75
2018-04-18T03:05:07.833Z,89.75
2018-04-18T03:06:08.037Z,90.23
2018-04-18T03:07:08.235Z,90.52
2018-04-18T03:08:08.446Z,90.70
2018-04-18T03:09:08.688Z,90.23
2018-04-18T03:10:08.875Z,90.23
2018-04-18T03:11:09.099Z,90.42
2018-04-18T03:12:09.310Z,90.42
2018-04-18T03:13:09.497Z,90.23
2018-04-18T03:14:09.681Z,90.04
2018-04-18T03:15:09.873Z,90.04
2018-04-18T03:16:10.082Z,90.89
2018-04-18T03:17:10.273Z,91.37
2018-04-18T03:18:10.474Z,91.47
2018-04-18T03:19:10.680Z,90.80
2018-04-18T03:20:10.931Z,90.80
2018-04-18T03:21:11.013Z,91.08
2018-04-18T03:22:11.208Z,91.47
2018-04-18T03:23:11.413Z,91.56
2018-04-18T03:24:11.619Z,91.66
2018-04-18T03:25:11.816Z,91.47
2018-04-18T03:26:12.000Z,91.08
2018-04-18T03:27:12.178Z,91.28
2018-04-18T03:28:12.371Z,90.99
2018-04-18T03:29:12.580Z,91.56
2018-04-18T03:30:12.788Z,91.66
2018-04-18T03:31:12.978Z,91.18
2018-04-18T03:32:13.170Z,91.47
2018-04-18T03:33:13.362Z,91.42
2018-04-18T03:34:13.567Z,91.75
2018-04-18T03:35:13.767Z,91.37
2018-04-18T03:36:13.968Z,91.33
2018-04-18T03:37:14.152Z,92.08
2018-04-18T03:38:14.344Z,91.13
2018-04-18T03:39:14.555Z,90.94
2018-04-18T03:40:14.761Z,90.94
2018-04-18T03:41:14.942Z,91.61
2018-04-18T03:42:15.125Z,91.52
2018-04-18T03:43:15.335Z,91.89
2018-04-18T03:44:15.524Z,92.08
2018-04-18T03:45:15.732Z,92.56
2018-04-18T03:46:15.915Z,92.46
2018-04-18T03:47:16.113Z,91.89
2018-04-18T03:48:16.303Z,91.80
2018-04-18T03:49:16.477Z,91.13
2018-04-18T03:50:16.661Z,91.52
2018-04-18T03:51:16.855Z,91.42
2018-04-18T03:52:17.090Z,91.71
2018-04-18T03:53:17.228Z,91.13
2018-04-18T03:54:17.415Z,91.52
2018-04-18T03:55:17.618Z,91.89
2018-04-18T03:56:17.831Z,92.08
2018-04-18T03:57:18.037Z,92.18
2018-04-18T03:58:18.235Z,91.61
2018-04-18T03:59:18.484Z,91.80
2018-04-18T04:00:18.705Z,91.04
2018-04-18T04:01:18.894Z,92.37
2018-04-18T04:02:19.100Z,91.89
2018-04-18T04:03:19.285Z,92.18
2018-04-18T04:04:19.472Z,91.99
2018-04-18T04:05:19.652Z,91.33
2018-04-18T04:06:19.842Z,91.42
2018-04-18T04:07:20.048Z,91.52
2018-04-18T04:08:20.247Z,91.42
2018-04-18T04:09:20.436Z,91.89
2018-04-18T04:10:20.638Z,91.52
2018-04-18T04:11:20.839Z,91.99
2018-04-18T04:12:21.042Z,91.99
2018-04-18T04:13:21.241Z,92.18
2018-04-18T04:14:21.443Z,91.52
2018-04-18T04:15:21.622Z,91.61
2018-04-18T04:16:21.817Z,91.04
2018-04-18T04:17:21.989Z,91.71
2018-04-18T04:18:22.192Z,91.52
2018-04-18T04:19:22.391Z,91.52
2018-04-18T04:20:22.603Z,91.52
2018-04-18T04:21:22.808Z,91.23
2018-04-18T04:22:23.010Z,91.71
2018-04-18T04:23:23.226Z,91.71
2018-04-18T04:24:23.402Z,91.71
2018-04-18T04:25:23.586Z,92.18
2018-04-18T04:26:23.767Z,92.18
2018-04-18T04:27:23.968Z,92.18
2018-04-18T04:28:24.158Z,92.18
2018-04-18T04:29:24.369Z,92.56
2018-04-18T04:30:24.560Z,92.66
2018-04-18T04:31:24.741Z,92.56
2018-04-18T04:32:24.945Z,92.66
2018-04-18T04:33:25.123Z,92.66
2018-04-18T04:34:25.327Z,92.18
2018-04-18T04:35:25.518Z,91.99
2018-04-18T04:36:25.723Z,92.08
2018-04-18T04:37:25.926Z,92.18
2018-04-18T04:38:26.121Z,91.89
2018-04-18T04:39:26.328Z,91.99
2018-04-18T04:40:26.521Z,91.75
2018-04-18T04:41:26.719Z,90.99
2018-04-18T04:42:26.911Z,90.99
2018-04-18T04:43:27.092Z,90.42
2018-04-18T04:44:27.290Z,90.61
2018-04-18T04:45:27.486Z,89.18
2018-04-18T04:46:27.687Z,89.28
2018-04-18T04:47:27.887Z,89.00
2018-04-18T04:48:28.074Z,88.42
2018-04-18T04:49:28.273Z,87.66
2018-04-18T04:50:28.476Z,87.57
2018-04-18T04:51:28.677Z,86.94
2018-04-18T04:52:28.860Z,86.85
2018-04-18T04:53:29.064Z,86.94
2018-04-18T04:54:29.254Z,87.13
2018-04-18T04:55:29.458Z,86.47
2018-04-18T04:56:29.670Z,87.04
2018-04-18T04:57:29.841Z,87.13
2018-04-18T04:58:30.050Z,87.32
2018-04-18T04:59:30.247Z,86.22
2018-04-18T05:00:30.469Z,84.89
2018-04-18T05:01:30.663Z,84.23
2018-04-18T05:02:30.925Z,82.08
2018-04-18T05:03:31.073Z,80.84
2018-04-18T05:04:31.257Z,79.55
2018-04-18T05:05:31.458Z,78.98
2018-04-18T05:08:05.301Z,75.78
2018-04-18T05:09:03.718Z,75.30
2018-04-18T05:10:03.908Z,75.24
2018-04-18T05:11:04.098Z,74.29
2018-04-18T05:12:04.285Z,73.43
2018-04-18T05:13:04.477Z,72.13
2018-04-18T05:14:04.675Z,70.89
2018-04-18T05:15:04.869Z,70.45
2018-04-18T05:16:05.049Z,69.97
2018-04-18T05:17:05.254Z,69.78
2018-04-18T05:18:05.444Z,68.92
2018-04-18T05:19:05.629Z,68.67
2018-04-18T05:20:05.825Z,67.52
2018-04-18T05:21:06.045Z,67.62
2018-04-18T05:22:06.215Z,66.66
2018-04-18T05:23:06.423Z,65.93
2018-04-18T05:24:06.624Z,66.22
2018-04-18T05:25:06.829Z,65.36
2018-04-18T05:26:07.031Z,64.62
2018-04-18T05:27:07.231Z,64.34
2018-04-18T05:28:07.419Z,62.94
2018-04-18T05:29:07.645Z,63.13
2018-04-18T05:30:07.842Z,62.46
2018-04-18T05:31:08.039Z,61.79
2018-04-18T05:33:40.215Z,60.03
2018-04-18T05:34:40.388Z,58.31
2018-04-18T05:35:40.581Z,58.37
2018-04-18T05:36:40.763Z,58.31
2018-04-18T05:37:40.946Z,58.56
2018-04-18T05:38:41.152Z,58.18
2018-04-18T05:39:41.344Z,58.22
2018-04-18T05:42:13.163Z,57.83
2018-04-18T05:43:13.333Z,57.83
2018-04-18T05:44:13.526Z,57.83
2018-04-18T05:45:13.735Z,57.64
2018-04-18T05:46:13.931Z,57.73
2018-04-18T05:47:14.113Z,56.81
2018-04-18T05:48:14.305Z,56.52
2018-04-18T05:49:14.641Z,55.78
2018-04-18T05:50:14.726Z,54.82
2018-04-18T05:51:14.936Z,54.44
2018-04-18T05:52:15.150Z,54.44
2018-04-18T05:53:15.333Z,54.37
2018-04-18T05:54:15.536Z,54.15
2018-04-18T05:55:15.760Z,54.72
2018-04-18T05:56:15.934Z,54.75
2018-04-18T05:57:16.143Z,53.44
2018-04-18T05:58:16.344Z,51.90
2018-04-18T05:59:16.550Z,52.00
2018-04-18T06:00:16.873Z,51.81
2018-04-18T06:01:16.966Z,51.61
2018-04-18T06:02:17.163Z,52.19
2018-04-18T06:03:17.353Z,52.86
2018-04-18T06:04:17.555Z,53.05
2018-04-18T06:05:17.768Z,52.19
2018-04-18T06:06:18.044Z,51.45
2018-04-18T06:07:18.166Z,49.65
2018-04-18T06:08:18.357Z,50.39
2018-04-18T06:09:18.574Z,49.74
2018-04-18T06:10:18.774Z,49.17
2018-04-18T06:11:19.075Z,49.07
2018-04-18T06:12:19.197Z,49.07
2018-04-18T06:13:19.402Z,49.74
2018-04-18T06:14:19.599Z,49.55
2018-04-18T06:15:19.797Z,49.38
2018-04-18T06:16:19.983Z,48.81
2018-04-18T06:17:20.295Z,48.61
2018-04-18T06:18:20.377Z,47.75
2018-04-18T06:19:20.669Z,47.46
2018-04-18T06:20:20.788Z,48.13
2018-04-18T06:21:20.978Z,48.59
2018-04-18T06:22:21.187Z,48.90
2018-04-18T06:23:21.387Z,48.61
2018-04-18T06:24:21.573Z,48.79
2018-04-18T06:25:21.787Z,49.10
2018-04-18T06:26:21.984Z,48.33
2018-04-18T06:27:22.178Z,49.57
2018-04-18T06:28:22.383Z,49.55
2018-04-18T06:29:22.715Z,49.67
2018-04-18T06:30:22.784Z,49.19
2018-04-18T06:31:23.014Z,48.07
2018-04-18T06:32:23.212Z,47.49
2018-04-18T06:33:23.407Z,47.13
2018-04-18T06:34:23.611Z,46.84
2018-04-18T06:35:23.808Z,47.03
2018-04-18T06:36:23.994Z,47.22
2018-04-18T06:37:24.214Z,47.51
2018-04-18T06:38:24.415Z,47.41
2018-04-18T06:39:24.605Z,46.86
2018-04-18T06:40:24.800Z,46.55
2018-04-18T06:41:25.011Z,46.93
2018-04-18T06:42:25.203Z,47.22
2018-04-18T06:43:25.415Z,47.34
2018-04-18T06:44:25.627Z,46.86
2018-04-18T06:45:25.838Z,46.11
2018-04-18T06:46:26.057Z,44.49
2018-04-18T06:47:26.253Z,45.25
2018-04-18T06:48:26.441Z,45.25
2018-04-18T06:49:26.634Z,44.40
2018-04-18T06:50:26.824Z,43.54
2018-04-18T06:51:27.038Z,44.19
2018-04-18T06:52:27.250Z,45.05
2018-04-18T06:53:27.450Z,43.92
2018-04-18T06:54:27.666Z,42.88
2018-04-18T06:55:27.846Z,41.94
2018-04-18T06:56:28.066Z,41.94
2018-04-18T06:57:28.277Z,41.48
2018-04-18T06:58:28.484Z,41.38
2018-04-18T06:59:28.702Z,42.23
2018-04-18T07:00:28.914Z,43.65
2018-04-18T07:01:29.148Z,42.15
2018-04-18T07:02:29.354Z,41.94
2018-04-18T07:03:29.544Z,43.48
2018-04-18T07:04:29.760Z,43.67
2018-04-18T07:05:29.959Z,43.77
2018-04-18T07:06:30.166Z,44.83
2018-04-18T07:07:30.375Z,43.77
2018-04-18T07:08:30.592Z,43.19
2018-04-18T07:11:02.698Z,45.24
2018-04-18T07:12:02.888Z,44.18
2018-04-18T07:13:03.090Z,43.02
2018-04-18T07:14:03.294Z,42.35
2018-04-18T07:15:03.503Z,43.02
2018-04-18T07:16:03.712Z,41.96
2018-04-18T07:17:03.931Z,42.15
2018-04-18T07:18:04.144Z,42.44
2018-04-18T07:19:04.345Z,42.08
2018-04-18T07:20:04.577Z,42.36
2018-04-18T07:21:04.794Z,42.36
2018-04-18T07:22:05.006Z,42.00
2018-04-18T07:23:05.196Z,41.13
2018-04-18T07:24:05.399Z,41.03
2018-04-18T07:25:05.618Z,41.33
2018-04-18T07:26:05.823Z,41.91
2018-04-18T07:27:06.023Z,41.33
2018-04-18T07:28:06.232Z,41.30
2018-04-18T07:29:06.447Z,42.08
2018-04-18T07:30:06.649Z,41.98
2018-04-18T07:31:06.956Z,42.36
2018-04-18T07:32:07.033Z,42.19
2018-04-18T07:33:07.230Z,40.38
2018-04-18T07:34:07.455Z,39.72
2018-04-18T07:35:07.666Z,40.11
2018-04-18T07:37:41.534Z,39.72
2018-04-18T07:38:40.216Z,39.82
2018-04-18T07:39:40.444Z,38.66
2018-04-18T07:40:40.664Z,38.76
2018-04-18T07:41:40.937Z,39.37
2018-04-18T07:42:41.035Z,41.77
2018-04-18T07:43:41.248Z,42.15
2018-04-18T07:44:41.444Z,42.29
2018-04-18T07:45:41.661Z,41.36
2018-04-18T07:46:41.920Z,39.74
2018-04-18T07:47:42.119Z,40.32
2018-04-18T07:48:42.341Z,37.48
2018-04-18T07:49:42.545Z,36.60
2018-04-18T07:50:42.765Z,36.88
2018-04-18T07:51:42.983Z,36.70
2018-04-18T07:54:15.112Z,37.54
2018-04-18T07:55:15.295Z,36.80
2018-04-18T07:56:15.513Z,36.40
2018-04-18T07:57:15.714Z,36.78
2018-04-18T07:58:15.931Z,36.49
2018-04-18T07:59:16.155Z,37.44
2018-04-18T08:00:16.373Z,37.55
2018-04-18T08:01:16.583Z,37.54
2018-04-18T08:02:16.802Z,37.92
2018-04-18T08:03:17.019Z,37.88
2018-04-18T08:04:17.255Z,38.78
2018-04-18T08:05:17.504Z,37.46
2018-04-18T08:06:17.727Z,38.35
2018-04-18T08:07:17.923Z,37.90
2018-04-18T08:08:18.138Z,40.26
2018-04-18T08:09:18.341Z,40.96
2018-04-18T08:10:18.554Z,41.02
2018-04-18T08:11:18.913Z,39.99
2018-04-18T08:12:19.017Z,42.05
2018-04-18T08:13:19.224Z,41.23
2018-04-18T08:14:19.421Z,39.26
2018-04-18T08:15:19.745Z,38.29
2018-04-18T08:16:19.860Z,38.31
2018-04-18T08:17:20.055Z,36.72
2018-04-18T08:18:20.253Z,35.28
2018-04-18T08:19:20.481Z,37.48
2018-04-18T08:20:20.680Z,37.24
2018-04-18T08:21:20.900Z,37.57
2018-04-18T08:22:21.126Z,34.53
2018-04-18T08:24:53.466Z,33.54
2018-04-18T08:25:53.660Z,34.80
2018-04-18T08:26:53.853Z,33.56
2018-04-18T08:27:54.072Z,33.09
2018-04-18T08:28:54.298Z,31.65
2018-04-18T08:29:54.510Z,31.57
2018-04-18T08:30:54.734Z,31.95
2018-04-18T08:31:54.958Z,32.17
2018-04-18T08:32:55.179Z,34.99
2018-04-18T08:33:55.397Z,33.84
2018-04-18T08:34:55.631Z,33.51
2018-04-18T08:35:55.851Z,32.70
2018-04-18T08:36:56.088Z,33.26
2018-04-18T08:37:56.304Z,32.02
2018-04-18T08:38:56.528Z,31.49
2018-04-18T08:39:56.733Z,33.73
2018-04-18T08:40:57.008Z,32.76
2018-04-18T08:41:57.104Z,34.06
2018-04-18T08:42:57.335Z,32.13
2018-04-18T08:43:57.558Z,31.85
2018-04-18T08:44:57.779Z,29.35
2018-04-18T08:45:57.983Z,30.58
2018-04-18T08:46:58.183Z,31.67
2018-04-18T08:49:30.372Z,30.37
2018-04-18T08:50:30.560Z,31.18
2018-04-18T08:51:30.903Z,30.44
2018-04-18T08:52:30.981Z,31.12
2018-04-18T08:53:31.178Z,31.63
2018-04-18T08:54:31.377Z,32.91
2018-04-18T08:55:31.589Z,30.68
2018-04-18T08:56:31.786Z,29.24
2018-04-18T08:57:32.020Z,28.17
2018-04-18T08:58:32.223Z,27.87
2018-04-18T08:59:32.441Z,27.22
2018-04-18T09:00:32.662Z,28.19
2018-04-18T09:01:32.894Z,26.21
2018-04-18T09:02:33.133Z,28.33
2018-04-18T09:03:33.330Z,28.36
2018-04-18T09:04:33.546Z,27.11
2018-04-18T09:05:33.771Z,26.75
2018-04-18T09:06:34.009Z,30.41
2018-04-18T09:07:34.212Z,27.93
2018-04-18T09:08:34.422Z,28.17
2018-04-18T09:09:34.638Z,27.50
2018-04-18T09:10:34.865Z,23.83
2018-04-18T09:11:35.076Z,24.02
2018-04-18T09:12:35.287Z,25.21
2018-04-18T09:13:35.513Z,24.63
2018-04-18T09:14:35.719Z,22.89
2018-04-18T09:15:35.933Z,23.25
2018-04-18T09:16:36.143Z,25.24
2018-04-18T09:17:36.368Z,28.08
2018-04-18T09:18:36.597Z,29.28
2018-04-18T09:19:36.808Z,29.40
2018-04-18T09:20:37.020Z,28.18
2018-04-18T09:21:37.229Z,26.44
2018-04-18T09:22:37.464Z,25.86
2018-04-18T09:23:37.676Z,26.15
2018-04-18T09:24:37.878Z,25.58
2018-04-18T09:25:38.091Z,26.70
2018-04-18T09:26:38.291Z,27.31
2018-04-18T09:27:38.517Z,27.43
2018-04-18T09:28:38.743Z,25.87
2018-04-18T09:29:39.052Z,24.91
2018-04-18T09:30:39.142Z,23.56
2018-04-18T09:31:39.341Z,23.19
2018-04-18T09:32:39.562Z,22.72
2018-04-18T09:33:39.786Z,21.92
2018-04-18T09:34:39.990Z,23.61
2018-04-18T09:35:40.197Z,26.14
2018-04-18T09:36:40.416Z,24.51
2018-04-18T09:37:40.622Z,23.25
2018-04-18T09:38:40.848Z,22.77
2018-04-18T09:39:41.070Z,22.58
2018-04-18T09:40:41.272Z,25.02
2018-04-18T09:41:41.479Z,23.28
2018-04-18T09:42:41.680Z,20.74
2018-04-18T09:43:41.904Z,20.36
2018-04-18T09:44:42.128Z,22.03
2018-04-18T09:45:42.333Z,19.56
2018-04-18T09:46:42.558Z,20.65
2018-04-18T09:47:42.775Z,21.91
2018-04-18T09:48:43.010Z,21.73
2018-04-18T09:49:43.240Z,20.77
2018-04-18T09:52:15.381Z,23.25
2018-04-18T09:53:15.570Z,21.22
2018-04-18T09:54:15.793Z,21.53
2018-04-18T09:55:16.002Z,21.64
2018-04-18T09:56:16.210Z,20.56
2018-04-18T09:57:16.433Z,22.91
2018-04-18T09:58:16.694Z,20.95
2018-04-18T09:59:16.856Z,21.53
2018-04-18T10:00:17.067Z,21.14
2018-04-18T10:01:17.381Z,21.81
2018-04-18T10:02:17.465Z,20.61
2018-04-18T10:03:17.687Z,23.21
2018-04-18T10:04:17.890Z,21.78
2018-04-18T10:06:50.024Z,24.56
2018-04-18T10:07:50.216Z,22.58
2018-04-18T10:08:50.425Z,21.01
2018-04-18T10:09:50.641Z,22.39
2018-04-18T10:10:50.841Z,23.10
2018-04-18T10:11:51.041Z,23.59
2018-04-18T10:12:51.241Z,24.78
2018-04-18T10:13:51.450Z,24.15
2018-04-18T10:14:51.640Z,24.76
2018-04-18T10:15:51.859Z,22.27
2018-04-18T10:16:52.105Z,21.61
2018-04-18T10:17:52.308Z,21.82
2018-04-18T10:18:52.513Z,21.12
2018-04-18T10:19:52.739Z,21.83
2018-04-18T10:20:52.966Z,21.25
2018-04-18T10:21:53.192Z,23.00
2018-04-18T10:22:53.394Z,20.95
2018-04-18T10:23:53.611Z,19.59
2018-04-18T10:26:25.495Z,22.12
2018-04-18T10:27:25.683Z,21.33
2018-04-18T10:28:25.897Z,21.12
2018-04-18T10:29:26.267Z,23.16
2018-04-18T10:30:26.377Z,23.93
2018-04-18T10:31:26.653Z,23.73
2018-04-18T10:32:26.743Z,23.52
2018-04-18T10:33:26.945Z,25.08
2018-04-18T10:34:27.171Z,22.77
2018-04-18T10:35:27.373Z,22.61
2018-04-18T10:36:27.600Z,22.41
2018-04-18T10:37:27.800Z,22.49
2018-04-18T10:38:28.015Z,21.25
2018-04-18T10:39:28.223Z,20.12
2018-04-18T10:40:28.525Z,20.80
2018-04-18T10:41:28.607Z,22.66
2018-04-18T10:42:28.815Z,22.75
2018-04-18T10:43:29.032Z,20.68
2018-04-18T10:44:29.236Z,21.31
2018-04-18T10:45:29.458Z,22.49
2018-04-18T10:46:29.669Z,22.41
2018-04-18T10:47:29.892Z,21.95
2018-04-18T10:48:30.123Z,20.97
2018-04-18T10:49:30.348Z,21.23
2018-04-18T10:50:30.573Z,22.89
2018-04-18T10:51:30.784Z,22.77
2018-04-18T10:52:30.999Z,24.62
2018-04-18T10:53:31.224Z,22.96
2018-04-18T10:54:31.429Z,24.73
2018-04-18T10:55:31.659Z,24.16
2018-04-18T10:56:31.852Z,25.01
2018-04-18T10:59:03.994Z,23.58
2018-04-18T11:00:04.188Z,23.32
2018-04-18T11:01:04.395Z,24.56
2018-04-18T11:02:04.703Z,24.95
2018-04-18T11:03:04.791Z,23.10
2018-04-18T11:04:05.002Z,23.01
2018-04-18T11:05:05.225Z,21.74
2018-04-18T11:06:05.452Z,22.87
2018-04-18T11:07:05.655Z,22.60
2018-04-18T11:08:05.851Z,22.99
2018-04-18T11:09:06.094Z,23.19
2018-04-18T11:10:06.287Z,24.23
2018-04-18T11:12:38.430Z,23.18
2018-04-18T11:13:38.614Z,22.12
2018-04-18T11:14:38.844Z,22.31
2018-04-18T11:15:39.149Z,23.00
2018-04-18T11:16:39.257Z,22.02
2018-04-18T11:17:39.462Z,23.56
2018-04-18T11:18:39.670Z,23.55
2018-04-18T11:19:39.868Z,22.87
2018-04-18T11:20:40.065Z,24.54
2018-04-18T11:21:40.293Z,24.80
2018-04-18T11:22:40.530Z,27.82
2018-04-18T11:23:40.763Z,26.57
2018-04-18T11:24:40.970Z,26.23
2018-04-18T11:25:41.155Z,28.76
2018-04-18T11:26:41.360Z,26.21
2018-04-18T11:27:41.567Z,27.92
2018-04-18T11:28:41.778Z,27.35
2018-04-18T11:29:41.978Z,28.25
2018-04-18T11:30:42.190Z,27.39
2018-04-18T11:31:42.413Z,26.03
2018-04-18T11:32:42.627Z,27.47
2018-04-18T11:33:42.825Z,27.72
2018-04-18T11:36:14.974Z,28.98
2018-04-18T11:37:15.155Z,27.35
2018-04-18T11:38:15.355Z,27.57
2018-04-18T11:39:15.565Z,28.25
2018-04-18T11:40:15.791Z,27.26
2018-04-18T11:41:15.987Z,28.04
2018-04-18T11:42:16.220Z,27.07
2018-04-18T11:43:16.425Z,25.52
2018-04-18T11:44:16.670Z,28.63
2018-04-18T11:45:16.880Z,28.14
2018-04-18T11:46:17.085Z,25.03
2018-04-18T11:47:17.298Z,26.49
2018-04-18T11:48:17.500Z,27.83
2018-04-18T11:49:17.716Z,28.23
2018-04-18T11:50:17.927Z,28.90
2018-04-18T11:51:18.153Z,29.10
2018-04-18T11:52:18.445Z,29.58
2018-04-18T11:53:18.530Z,28.03
2018-04-18T11:54:18.719Z,28.13
2018-04-18T11:55:18.956Z,28.51
2018-04-18T11:56:19.170Z,25.89
2018-04-18T11:57:19.380Z,24.34
2018-04-18T11:58:19.596Z,23.38
2018-04-18T11:59:19.789Z,24.93
2018-04-18T12:00:20.003Z,24.24
2018-04-18T12:01:20.219Z,25.99
2018-04-18T12:02:20.429Z,24.71
2018-04-18T12:03:20.634Z,27.43
2018-04-18T12:04:20.854Z,27.13
2018-04-18T12:05:21.055Z,25.67
2018-04-18T12:06:21.271Z,24.62
2018-04-18T12:08:53.431Z,26.00
2018-04-18T12:09:53.613Z,22.99
2018-04-18T12:10:53.844Z,28.13
2018-04-18T12:11:54.053Z,25.32
2018-04-18T12:12:54.272Z,24.95
2018-04-18T12:13:54.530Z,22.88
2018-04-18T12:14:54.720Z,25.49
2018-04-18T12:15:54.911Z,25.89
2018-04-18T12:16:55.112Z,21.24
2018-04-18T12:17:55.304Z,22.22
2018-04-18T12:18:55.508Z,21.23
2018-04-18T12:19:55.723Z,23.75
2018-04-18T12:20:55.917Z,21.80
2018-04-18T12:21:56.115Z,22.49
2018-04-18T12:22:56.336Z,22.00
2018-04-18T12:23:56.530Z,22.00
2018-04-18T12:24:56.762Z,23.47
2018-04-18T12:25:56.969Z,23.00
2018-04-18T12:26:57.192Z,20.37
2018-04-18T12:27:57.414Z,21.15
2018-04-18T12:28:57.611Z,20.46
2018-04-18T12:29:57.813Z,20.07
2018-04-18T12:30:58.029Z,19.98
2018-04-18T12:31:58.236Z,21.05
2018-04-18T12:32:58.457Z,20.27
2018-04-18T12:33:58.685Z,22.50
2018-04-18T12:34:58.879Z,23.57
2018-04-18T12:35:59.106Z,24.44
2018-04-18T12:38:32.966Z,19.40
2018-04-18T12:39:31.521Z,19.42
2018-04-18T12:40:31.715Z,20.37
2018-04-18T12:41:31.931Z,19.99
2018-04-18T12:42:32.119Z,21.15
2018-04-18T12:43:32.308Z,20.57
2018-04-18T12:44:32.517Z,23.58
2018-04-18T12:45:32.725Z,21.43
2018-04-18T12:46:32.944Z,21.82
2018-04-18T12:47:33.160Z,20.74
2018-04-18T12:48:33.393Z,21.03
2018-04-18T12:49:33.588Z,20.64
2018-04-18T12:50:33.785Z,22.58
2018-04-18T12:51:33.985Z,21.51
2018-04-18T12:52:34.179Z,21.42
2018-04-18T12:53:34.405Z,22.50
2018-04-18T12:54:34.613Z,22.49
2018-04-18T12:55:34.826Z,21.42
2018-04-18T12:56:35.044Z,20.46
2018-04-18T12:57:35.295Z,19.20
2018-04-18T12:58:35.480Z,18.73
2018-04-18T12:59:35.698Z,19.19
2018-04-18T13:00:35.892Z,20.06
2018-04-18T13:01:36.099Z,20.26
2018-04-18T13:02:36.326Z,20.56
2018-04-18T13:03:36.516Z,21.92
2018-04-18T13:04:36.731Z,20.07
2018-04-18T13:05:36.948Z,21.64
2018-04-18T13:06:37.175Z,20.94
2018-04-18T13:07:37.377Z,20.36
2018-04-18T13:08:37.566Z,19.38
2018-04-18T13:09:37.757Z,21.81
2018-04-18T13:10:38.021Z,20.84
2018-04-18T13:11:38.206Z,24.13
2018-04-18T13:12:38.429Z,23.27
2018-04-18T13:13:38.643Z,22.60
2018-04-18T13:14:38.855Z,23.08
2018-04-18T13:15:39.048Z,21.14
2018-04-18T13:16:39.271Z,21.64
2018-04-18T13:17:39.454Z,22.90
2018-04-18T13:18:39.650Z,23.57
2018-04-18T13:19:39.845Z,19.68
2018-04-18T13:20:40.067Z,21.14
2018-04-18T13:21:40.260Z,19.98
2018-04-18T13:22:40.451Z,19.59
2018-04-18T13:23:40.763Z,18.23
2018-04-18T13:24:40.855Z,18.43
2018-04-18T13:25:41.065Z,19.40
2018-04-18T13:26:41.251Z,20.55
2018-04-18T13:27:41.443Z,20.75
2018-04-18T13:28:41.663Z,19.48